sensor_id;sensor_type;location;lat;lon;timestamp;P1;durP1;ratioP1;P2;durP2;ratioP2
20711;SDS011;10517;50.742;4.224;2023-06-19T00:00:26;2.78;;;1.88;;
20711;SDS011;10517;50.742;4.224;2023-06-19T00:02:55;7.18;;;2.10;;
20711;SDS011;10517;50.742;4.224;2023-06-19T00:05:20;3.15;;;2.03;;
20711;SDS011;10517;50.742;4.224;2023-06-19T00:07:48;2.22;;;1.67;;
20711;SDS011;10517;50.742;4.224;2023-06-19T00:10:13;4.07;;;2.10;;
20711;SDS011;10517;50.742;4.224;2023-06-19T00:12:39;3.75;;;2.38;;
20711;SDS011;10517;50.742;4.224;2023-06-19T00:15:05;2.85;;;1.85;;
20711;SDS011;10517;50.742;4.224;2023-06-19T00:17:32;3.33;;;2.10;;
20711;SDS011;10517;50.742;4.224;2023-06-19T00:19:58;5.13;;;1.85;;
20711;SDS011;10517;50.742;4.224;2023-06-19T00:22:24;2.65;;;2.00;;
20711;SDS011;10517;50.742;4.224;2023-06-19T00:24:51;2.47;;;1.95;;
20711;SDS011;10517;50.742;4.224;2023-06-19T00:27:17;2.90;;;2.08;;
20711;SDS011;10517;50.742;4.224;2023-06-19T00:29:43;3.33;;;2.40;;
20711;SDS011;10517;50.742;4.224;2023-06-19T00:32:09;3.20;;;1.73;;
20711;SDS011;10517;50.742;4.224;2023-06-19T00:34:34;3.60;;;1.80;;
20711;SDS011;10517;50.742;4.224;2023-06-19T00:37:02;4.57;;;1.67;;
20711;SDS011;10517;50.742;4.224;2023-06-19T00:39:28;4.10;;;1.80;;
20711;SDS011;10517;50.742;4.224;2023-06-19T00:41:54;3.80;;;2.83;;
20711;SDS011;10517;50.742;4.224;2023-06-19T00:44:21;2.13;;;1.90;;
20711;SDS011;10517;50.742;4.224;2023-06-19T00:46:47;5.43;;;1.98;;
20711;SDS011;10517;50.742;4.224;2023-06-19T00:49:16;2.17;;;1.75;;
20711;SDS011;10517;50.742;4.224;2023-06-19T00:51:42;4.20;;;1.80;;
20711;SDS011;10517;50.742;4.224;2023-06-19T00:54:07;3.53;;;2.20;;
20711;SDS011;10517;50.742;4.224;2023-06-19T00:56:33;2.55;;;1.92;;
20711;SDS011;10517;50.742;4.224;2023-06-19T00:59:02;3.67;;;1.92;;
20711;SDS011;10517;50.742;4.224;2023-06-19T01:01:38;2.63;;;2.00;;
20711;SDS011;10517;50.742;4.224;2023-06-19T01:04:04;3.42;;;2.20;;
20711;SDS011;10517;50.742;4.224;2023-06-19T01:06:32;2.83;;;1.88;;
20711;SDS011;10517;50.742;4.224;2023-06-19T01:09:13;3.67;;;2.13;;
20711;SDS011;10517;50.742;4.224;2023-06-19T01:11:50;3.92;;;2.65;;
20711;SDS011;10517;50.742;4.224;2023-06-19T01:14:27;3.38;;;2.80;;
20711;SDS011;10517;50.742;4.224;2023-06-19T01:16:59;4.65;;;2.00;;
20711;SDS011;10517;50.742;4.224;2023-06-19T01:19:25;3.25;;;2.53;;
20711;SDS011;10517;50.742;4.224;2023-06-19T01:21:51;11.38;;;2.90;;
20711;SDS011;10517;50.742;4.224;2023-06-19T01:24:16;4.05;;;2.70;;
20711;SDS011;10517;50.742;4.224;2023-06-19T01:26:42;6.55;;;2.22;;
20711;SDS011;10517;50.742;4.224;2023-06-19T01:29:11;3.50;;;2.30;;
20711;SDS011;10517;50.742;4.224;2023-06-19T01:34:19;4.88;;;2.38;;
20711;SDS011;10517;50.742;4.224;2023-06-19T01:36:47;7.38;;;2.88;;
20711;SDS011;10517;50.742;4.224;2023-06-19T01:39:14;3.65;;;2.60;;
20711;SDS011;10517;50.742;4.224;2023-06-19T01:41:42;9.77;;;2.35;;
20711;SDS011;10517;50.742;4.224;2023-06-19T01:44:09;3.72;;;2.63;;
20711;SDS011;10517;50.742;4.224;2023-06-19T01:46:35;6.72;;;2.83;;
20711;SDS011;10517;50.742;4.224;2023-06-19T01:49:01;3.80;;;2.85;;
20711;SDS011;10517;50.742;4.224;2023-06-19T01:51:31;7.95;;;3.08;;
20711;SDS011;10517;50.742;4.224;2023-06-19T01:53:56;3.97;;;2.53;;
20711;SDS011;10517;50.742;4.224;2023-06-19T01:56:22;5.35;;;2.85;;
20711;SDS011;10517;50.742;4.224;2023-06-19T01:58:49;4.90;;;3.30;;
20711;SDS011;10517;50.742;4.224;2023-06-19T02:01:14;5.78;;;3.17;;
20711;SDS011;10517;50.742;4.224;2023-06-19T02:03:40;6.55;;;3.00;;
20711;SDS011;10517;50.742;4.224;2023-06-19T02:06:05;6.40;;;3.03;;
20711;SDS011;10517;50.742;4.224;2023-06-19T02:08:32;4.45;;;3.15;;
20711;SDS011;10517;50.742;4.224;2023-06-19T02:10:57;3.65;;;2.80;;
20711;SDS011;10517;50.742;4.224;2023-06-19T02:13:23;9.00;;;3.22;;
20711;SDS011;10517;50.742;4.224;2023-06-19T02:15:48;3.90;;;3.33;;
20711;SDS011;10517;50.742;4.224;2023-06-19T02:18:14;7.10;;;3.35;;
20711;SDS011;10517;50.742;4.224;2023-06-19T02:20:40;4.32;;;3.47;;
20711;SDS011;10517;50.742;4.224;2023-06-19T02:23:05;6.22;;;3.72;;
20711;SDS011;10517;50.742;4.224;2023-06-19T02:25:31;8.68;;;3.45;;
20711;SDS011;10517;50.742;4.224;2023-06-19T02:27:56;9.57;;;4.28;;
20711;SDS011;10517;50.742;4.224;2023-06-19T02:30:22;4.93;;;3.63;;
20711;SDS011;10517;50.742;4.224;2023-06-19T02:32:47;5.10;;;3.83;;
20711;SDS011;10517;50.742;4.224;2023-06-19T02:35:13;7.25;;;3.95;;
20711;SDS011;10517;50.742;4.224;2023-06-19T02:37:40;7.95;;;3.78;;
20711;SDS011;10517;50.742;4.224;2023-06-19T02:40:06;8.90;;;3.50;;
20711;SDS011;10517;50.742;4.224;2023-06-19T02:42:34;4.80;;;3.83;;
20711;SDS011;10517;50.742;4.224;2023-06-19T02:44:59;6.38;;;3.42;;
20711;SDS011;10517;50.742;4.224;2023-06-19T02:47:29;9.10;;;4.25;;
20711;SDS011;10517;50.742;4.224;2023-06-19T02:49:58;5.35;;;3.70;;
20711;SDS011;10517;50.742;4.224;2023-06-19T02:52:25;4.32;;;3.75;;
20711;SDS011;10517;50.742;4.224;2023-06-19T02:54:51;5.28;;;3.67;;
20711;SDS011;10517;50.742;4.224;2023-06-19T02:57:17;7.68;;;4.47;;
20711;SDS011;10517;50.742;4.224;2023-06-19T02:59:42;4.78;;;4.28;;
20711;SDS011;10517;50.742;4.224;2023-06-19T03:02:08;9.43;;;4.78;;
20711;SDS011;10517;50.742;4.224;2023-06-19T03:04:34;5.15;;;3.63;;
20711;SDS011;10517;50.742;4.224;2023-06-19T03:06:59;4.72;;;3.47;;
20711;SDS011;10517;50.742;4.224;2023-06-19T03:09:25;5.88;;;4.38;;
20711;SDS011;10517;50.742;4.224;2023-06-19T03:11:51;4.63;;;3.42;;
20711;SDS011;10517;50.742;4.224;2023-06-19T03:14:17;7.32;;;3.50;;
20711;SDS011;10517;50.742;4.224;2023-06-19T03:16:42;6.25;;;3.22;;
20711;SDS011;10517;50.742;4.224;2023-06-19T03:19:08;5.93;;;3.63;;
20711;SDS011;10517;50.742;4.224;2023-06-19T03:21:34;8.50;;;3.28;;
20711;SDS011;10517;50.742;4.224;2023-06-19T03:24:00;7.78;;;3.33;;
20711;SDS011;10517;50.742;4.224;2023-06-19T03:26:26;6.15;;;3.63;;
20711;SDS011;10517;50.742;4.224;2023-06-19T03:28:51;5.35;;;3.22;;
20711;SDS011;10517;50.742;4.224;2023-06-19T03:31:17;5.10;;;3.22;;
20711;SDS011;10517;50.742;4.224;2023-06-19T03:33:43;5.82;;;3.47;;
20711;SDS011;10517;50.742;4.224;2023-06-19T03:36:09;6.22;;;3.38;;
20711;SDS011;10517;50.742;4.224;2023-06-19T03:38:35;5.47;;;3.17;;
20711;SDS011;10517;50.742;4.224;2023-06-19T03:41:01;9.23;;;4.75;;
20711;SDS011;10517;50.742;4.224;2023-06-19T03:43:27;10.77;;;5.30;;
20711;SDS011;10517;50.742;4.224;2023-06-19T03:45:52;7.10;;;4.10;;
20711;SDS011;10517;50.742;4.224;2023-06-19T03:48:18;5.47;;;4.07;;
20711;SDS011;10517;50.742;4.224;2023-06-19T03:50:43;6.93;;;4.53;;
20711;SDS011;10517;50.742;4.224;2023-06-19T03:53:09;5.32;;;4.35;;
20711;SDS011;10517;50.742;4.224;2023-06-19T03:55:35;6.70;;;4.75;;
20711;SDS011;10517;50.742;4.224;2023-06-19T03:58:00;7.35;;;4.88;;
20711;SDS011;10517;50.742;4.224;2023-06-19T04:00:26;6.07;;;4.30;;
20711;SDS011;10517;50.742;4.224;2023-06-19T04:02:52;6.32;;;4.38;;
20711;SDS011;10517;50.742;4.224;2023-06-19T04:05:17;7.75;;;5.22;;
20711;SDS011;10517;50.742;4.224;2023-06-19T04:07:44;7.70;;;4.85;;
20711;SDS011;10517;50.742;4.224;2023-06-19T04:10:10;8.27;;;5.68;;
20711;SDS011;10517;50.742;4.224;2023-06-19T04:12:38;8.15;;;5.25;;
20711;SDS011;10517;50.742;4.224;2023-06-19T04:15:05;13.48;;;6.70;;
20711;SDS011;10517;50.742;4.224;2023-06-19T04:17:31;7.97;;;4.68;;
20711;SDS011;10517;50.742;4.224;2023-06-19T04:19:57;7.82;;;5.10;;
20711;SDS011;10517;50.742;4.224;2023-06-19T04:22:23;9.50;;;4.88;;
20711;SDS011;10517;50.742;4.224;2023-06-19T04:24:48;7.13;;;4.95;;
20711;SDS011;10517;50.742;4.224;2023-06-19T04:27:14;11.98;;;5.95;;
20711;SDS011;10517;50.742;4.224;2023-06-19T04:29:39;13.07;;;5.57;;
20711;SDS011;10517;50.742;4.224;2023-06-19T04:32:05;12.32;;;5.38;;
20711;SDS011;10517;50.742;4.224;2023-06-19T04:34:36;7.40;;;4.90;;
20711;SDS011;10517;50.742;4.224;2023-06-19T04:37:02;8.65;;;4.88;;
20711;SDS011;10517;50.742;4.224;2023-06-19T04:39:28;9.27;;;5.10;;
20711;SDS011;10517;50.742;4.224;2023-06-19T04:41:53;9.07;;;5.22;;
20711;SDS011;10517;50.742;4.224;2023-06-19T04:44:19;7.80;;;4.95;;
20711;SDS011;10517;50.742;4.224;2023-06-19T04:46:44;9.15;;;5.43;;
20711;SDS011;10517;50.742;4.224;2023-06-19T04:49:10;8.10;;;5.32;;
20711;SDS011;10517;50.742;4.224;2023-06-19T04:51:36;6.65;;;4.75;;
20711;SDS011;10517;50.742;4.224;2023-06-19T04:54:02;11.68;;;5.50;;
20711;SDS011;10517;50.742;4.224;2023-06-19T04:56:27;9.88;;;5.68;;
20711;SDS011;10517;50.742;4.224;2023-06-19T04:58:53;11.20;;;5.40;;
20711;SDS011;10517;50.742;4.224;2023-06-19T05:01:21;8.52;;;4.80;;
20711;SDS011;10517;50.742;4.224;2023-06-19T05:03:52;11.95;;;5.78;;
20711;SDS011;10517;50.742;4.224;2023-06-19T05:06:19;14.25;;;5.82;;
20711;SDS011;10517;50.742;4.224;2023-06-19T05:08:45;10.88;;;5.80;;
20711;SDS011;10517;50.742;4.224;2023-06-19T05:11:11;9.35;;;6.05;;
20711;SDS011;10517;50.742;4.224;2023-06-19T05:13:36;11.10;;;5.88;;
20711;SDS011;10517;50.742;4.224;2023-06-19T05:16:02;10.35;;;6.20;;
20711;SDS011;10517;50.742;4.224;2023-06-19T05:18:27;9.45;;;5.25;;
20711;SDS011;10517;50.742;4.224;2023-06-19T05:20:53;12.68;;;5.47;;
20711;SDS011;10517;50.742;4.224;2023-06-19T05:23:19;7.05;;;5.38;;
20711;SDS011;10517;50.742;4.224;2023-06-19T05:25:44;9.10;;;6.18;;
20711;SDS011;10517;50.742;4.224;2023-06-19T05:28:10;10.07;;;6.20;;
20711;SDS011;10517;50.742;4.224;2023-06-19T05:30:36;9.35;;;5.63;;
20711;SDS011;10517;50.742;4.224;2023-06-19T05:33:01;11.18;;;6.47;;
20711;SDS011;10517;50.742;4.224;2023-06-19T05:35:27;12.68;;;6.22;;
20711;SDS011;10517;50.742;4.224;2023-06-19T05:37:52;9.25;;;6.47;;
20711;SDS011;10517;50.742;4.224;2023-06-19T05:40:18;12.93;;;7.00;;
20711;SDS011;10517;50.742;4.224;2023-06-19T05:42:44;10.57;;;6.28;;
20711;SDS011;10517;50.742;4.224;2023-06-19T05:45:10;9.55;;;6.10;;
20711;SDS011;10517;50.742;4.224;2023-06-19T05:47:36;8.27;;;6.35;;
20711;SDS011;10517;50.742;4.224;2023-06-19T05:50:01;10.77;;;7.63;;
20711;SDS011;10517;50.742;4.224;2023-06-19T05:52:27;10.18;;;7.15;;
20711;SDS011;10517;50.742;4.224;2023-06-19T05:54:53;15.48;;;8.60;;
20711;SDS011;10517;50.742;4.224;2023-06-19T05:57:19;17.52;;;9.52;;
20711;SDS011;10517;50.742;4.224;2023-06-19T05:59:47;18.13;;;8.70;;
20711;SDS011;10517;50.742;4.224;2023-06-19T06:02:13;13.18;;;9.38;;
20711;SDS011;10517;50.742;4.224;2023-06-19T06:04:38;13.70;;;9.27;;
20711;SDS011;10517;50.742;4.224;2023-06-19T06:07:04;14.57;;;8.40;;
20711;SDS011;10517;50.742;4.224;2023-06-19T06:09:30;16.50;;;8.48;;
20711;SDS011;10517;50.742;4.224;2023-06-19T06:11:56;13.20;;;8.10;;
20711;SDS011;10517;50.742;4.224;2023-06-19T06:14:23;14.15;;;7.97;;
20711;SDS011;10517;50.742;4.224;2023-06-19T06:16:49;9.90;;;7.07;;
20711;SDS011;10517;50.742;4.224;2023-06-19T06:19:14;12.55;;;8.13;;
20711;SDS011;10517;50.742;4.224;2023-06-19T06:21:40;10.70;;;7.18;;
20711;SDS011;10517;50.742;4.224;2023-06-19T06:24:06;14.73;;;8.23;;
20711;SDS011;10517;50.742;4.224;2023-06-19T06:26:31;11.18;;;6.95;;
20711;SDS011;10517;50.742;4.224;2023-06-19T06:28:58;14.55;;;6.78;;
20711;SDS011;10517;50.742;4.224;2023-06-19T06:31:23;12.88;;;7.60;;
20711;SDS011;10517;50.742;4.224;2023-06-19T06:33:49;9.88;;;6.90;;
20711;SDS011;10517;50.742;4.224;2023-06-19T06:36:15;19.52;;;7.20;;
20711;SDS011;10517;50.742;4.224;2023-06-19T06:38:41;10.82;;;6.57;;
20711;SDS011;10517;50.742;4.224;2023-06-19T06:41:07;10.07;;;7.03;;
20711;SDS011;10517;50.742;4.224;2023-06-19T06:43:33;12.07;;;7.28;;
20711;SDS011;10517;50.742;4.224;2023-06-19T06:45:59;10.63;;;6.97;;
20711;SDS011;10517;50.742;4.224;2023-06-19T06:48:24;9.65;;;6.72;;
20711;SDS011;10517;50.742;4.224;2023-06-19T06:50:50;12.65;;;7.35;;
20711;SDS011;10517;50.742;4.224;2023-06-19T06:53:23;14.07;;;6.97;;
20711;SDS011;10517;50.742;4.224;2023-06-19T06:55:50;10.80;;;6.43;;
20711;SDS011;10517;50.742;4.224;2023-06-19T06:58:15;10.40;;;6.53;;
20711;SDS011;10517;50.742;4.224;2023-06-19T07:00:42;9.00;;;6.32;;
20711;SDS011;10517;50.742;4.224;2023-06-19T07:03:08;11.32;;;6.55;;
20711;SDS011;10517;50.742;4.224;2023-06-19T07:05:34;11.20;;;6.10;;
20711;SDS011;10517;50.742;4.224;2023-06-19T07:07:59;9.55;;;6.05;;
20711;SDS011;10517;50.742;4.224;2023-06-19T07:10:25;7.80;;;5.60;;
20711;SDS011;10517;50.742;4.224;2023-06-19T07:12:50;10.15;;;6.28;;
20711;SDS011;10517;50.742;4.224;2023-06-19T07:15:16;9.35;;;6.35;;
20711;SDS011;10517;50.742;4.224;2023-06-19T07:17:43;14.63;;;6.70;;
20711;SDS011;10517;50.742;4.224;2023-06-19T07:20:09;9.05;;;6.47;;
20711;SDS011;10517;50.742;4.224;2023-06-19T07:22:35;11.68;;;6.20;;
20711;SDS011;10517;50.742;4.224;2023-06-19T07:25:02;10.32;;;5.65;;
20711;SDS011;10517;50.742;4.224;2023-06-19T07:27:29;9.98;;;6.78;;
20711;SDS011;10517;50.742;4.224;2023-06-19T07:29:55;10.73;;;6.78;;
20711;SDS011;10517;50.742;4.224;2023-06-19T07:32:20;12.73;;;7.18;;
20711;SDS011;10517;50.742;4.224;2023-06-19T07:34:46;7.20;;;5.97;;
20711;SDS011;10517;50.742;4.224;2023-06-19T07:37:12;10.13;;;7.00;;
20711;SDS011;10517;50.742;4.224;2023-06-19T07:39:46;11.95;;;6.80;;
20711;SDS011;10517;50.742;4.224;2023-06-19T07:42:13;9.40;;;5.80;;
20711;SDS011;10517;50.742;4.224;2023-06-19T07:44:39;11.90;;;5.80;;
20711;SDS011;10517;50.742;4.224;2023-06-19T07:47:05;7.75;;;5.70;;
20711;SDS011;10517;50.742;4.224;2023-06-19T07:49:31;8.18;;;5.60;;
20711;SDS011;10517;50.742;4.224;2023-06-19T07:51:57;7.70;;;5.72;;
20711;SDS011;10517;50.742;4.224;2023-06-19T07:54:22;10.73;;;6.18;;
20711;SDS011;10517;50.742;4.224;2023-06-19T07:56:48;9.35;;;5.25;;
20711;SDS011;10517;50.742;4.224;2023-06-19T07:59:14;8.63;;;6.10;;
20711;SDS011;10517;50.742;4.224;2023-06-19T08:01:39;10.85;;;5.75;;
20711;SDS011;10517;50.742;4.224;2023-06-19T08:04:05;9.80;;;5.50;;
20711;SDS011;10517;50.742;4.224;2023-06-19T08:06:31;9.23;;;5.55;;
20711;SDS011;10517;50.742;4.224;2023-06-19T08:08:57;7.63;;;4.88;;
20711;SDS011;10517;50.742;4.224;2023-06-19T08:11:23;6.63;;;5.13;;
20711;SDS011;10517;50.742;4.224;2023-06-19T08:13:48;8.63;;;5.53;;
20711;SDS011;10517;50.742;4.224;2023-06-19T08:16:14;11.55;;;5.82;;
20711;SDS011;10517;50.742;4.224;2023-06-19T08:18:40;7.72;;;6.57;;
20711;SDS011;10517;50.742;4.224;2023-06-19T08:21:05;8.77;;;5.95;;
20711;SDS011;10517;50.742;4.224;2023-06-19T08:23:31;9.32;;;5.78;;
20711;SDS011;10517;50.742;4.224;2023-06-19T08:25:57;8.43;;;5.70;;
20711;SDS011;10517;50.742;4.224;2023-06-19T08:28:22;9.73;;;6.38;;
20711;SDS011;10517;50.742;4.224;2023-06-19T08:30:48;10.60;;;5.70;;
20711;SDS011;10517;50.742;4.224;2023-06-19T08:33:14;7.68;;;5.28;;
20711;SDS011;10517;50.742;4.224;2023-06-19T08:35:39;13.85;;;6.22;;
20711;SDS011;10517;50.742;4.224;2023-06-19T08:38:05;10.32;;;5.45;;
20711;SDS011;10517;50.742;4.224;2023-06-19T08:40:31;9.90;;;5.72;;
20711;SDS011;10517;50.742;4.224;2023-06-19T08:42:57;9.02;;;5.97;;
20711;SDS011;10517;50.742;4.224;2023-06-19T08:45:25;7.68;;;5.00;;
20711;SDS011;10517;50.742;4.224;2023-06-19T08:47:57;9.18;;;5.35;;
20711;SDS011;10517;50.742;4.224;2023-06-19T08:50:24;5.65;;;4.90;;
20711;SDS011;10517;50.742;4.224;2023-06-19T08:52:50;6.63;;;5.13;;
20711;SDS011;10517;50.742;4.224;2023-06-19T08:55:16;8.13;;;5.40;;
20711;SDS011;10517;50.742;4.224;2023-06-19T08:57:41;9.93;;;4.93;;
20711;SDS011;10517;50.742;4.224;2023-06-19T09:00:07;9.23;;;5.50;;
20711;SDS011;10517;50.742;4.224;2023-06-19T09:02:44;6.65;;;5.88;;
20711;SDS011;10517;50.742;4.224;2023-06-19T09:05:17;9.45;;;5.95;;
20711;SDS011;10517;50.742;4.224;2023-06-19T09:07:46;8.93;;;6.18;;
20711;SDS011;10517;50.742;4.224;2023-06-19T09:10:23;16.00;;;6.60;;
20711;SDS011;10517;50.742;4.224;2023-06-19T09:15:29;13.57;;;7.60;;
20711;SDS011;10517;50.742;4.224;2023-06-19T09:18:00;12.13;;;6.53;;
20711;SDS011;10517;50.742;4.224;2023-06-19T09:20:27;9.38;;;6.30;;
20711;SDS011;10517;50.742;4.224;2023-06-19T09:22:54;12.85;;;6.38;;
20711;SDS011;10517;50.742;4.224;2023-06-19T09:25:21;10.38;;;7.05;;
20711;SDS011;10517;50.742;4.224;2023-06-19T09:27:48;10.68;;;7.07;;
20711;SDS011;10517;50.742;4.224;2023-06-19T09:30:17;10.48;;;7.53;;
20711;SDS011;10517;50.742;4.224;2023-06-19T09:32:43;8.90;;;6.85;;
20711;SDS011;10517;50.742;4.224;2023-06-19T09:35:08;7.55;;;6.32;;
20711;SDS011;10517;50.742;4.224;2023-06-19T09:37:34;12.05;;;7.50;;
20711;SDS011;10517;50.742;4.224;2023-06-19T09:40:01;7.97;;;6.97;;
20711;SDS011;10517;50.742;4.224;2023-06-19T09:42:36;11.10;;;7.05;;
20711;SDS011;10517;50.742;4.224;2023-06-19T09:45:05;9.85;;;6.97;;
20711;SDS011;10517;50.742;4.224;2023-06-19T09:47:39;8.43;;;6.30;;
20711;SDS011;10517;50.742;4.224;2023-06-19T09:50:14;8.13;;;6.88;;
20711;SDS011;10517;50.742;4.224;2023-06-19T09:52:41;8.68;;;6.75;;
20711;SDS011;10517;50.742;4.224;2023-06-19T09:55:07;11.00;;;7.25;;
20711;SDS011;10517;50.742;4.224;2023-06-19T09:57:35;13.20;;;8.18;;
20711;SDS011;10517;50.742;4.224;2023-06-19T10:00:03;11.70;;;7.45;;
20711;SDS011;10517;50.742;4.224;2023-06-19T10:02:38;11.65;;;7.82;;
20711;SDS011;10517;50.742;4.224;2023-06-19T10:05:06;13.60;;;8.60;;
20711;SDS011;10517;50.742;4.224;2023-06-19T10:07:37;9.60;;;6.97;;
20711;SDS011;10517;50.742;4.224;2023-06-19T10:10:06;10.15;;;7.38;;
20711;SDS011;10517;50.742;4.224;2023-06-19T10:12:41;11.80;;;7.20;;
20711;SDS011;10517;50.742;4.224;2023-06-19T10:15:18;14.35;;;8.57;;
20711;SDS011;10517;50.742;4.224;2023-06-19T10:17:46;12.18;;;8.40;;
20711;SDS011;10517;50.742;4.224;2023-06-19T10:20:20;12.85;;;8.63;;
20711;SDS011;10517;50.742;4.224;2023-06-19T10:23:04;17.73;;;9.68;;
20711;SDS011;10517;50.742;4.224;2023-06-19T10:25:34;20.77;;;12.18;;
20711;SDS011;10517;50.742;4.224;2023-06-19T10:28:01;19.15;;;10.73;;
20711;SDS011;10517;50.742;4.224;2023-06-19T10:30:30;19.20;;;9.45;;
20711;SDS011;10517;50.742;4.224;2023-06-19T10:32:56;20.05;;;8.88;;
20711;SDS011;10517;50.742;4.224;2023-06-19T10:35:22;16.85;;;9.20;;
20711;SDS011;10517;50.742;4.224;2023-06-19T10:37:49;15.95;;;9.65;;
20711;SDS011;10517;50.742;4.224;2023-06-19T10:40:15;13.75;;;8.60;;
20711;SDS011;10517;50.742;4.224;2023-06-19T10:42:41;17.80;;;8.23;;
20711;SDS011;10517;50.742;4.224;2023-06-19T10:45:08;13.13;;;8.10;;
20711;SDS011;10517;50.742;4.224;2023-06-19T10:47:37;15.48;;;7.60;;
20711;SDS011;10517;50.742;4.224;2023-06-19T10:50:04;8.55;;;6.05;;
20711;SDS011;10517;50.742;4.224;2023-06-19T10:52:34;8.82;;;5.20;;
20711;SDS011;10517;50.742;4.224;2023-06-19T10:55:00;14.48;;;7.13;;
20711;SDS011;10517;50.742;4.224;2023-06-19T10:57:31;11.70;;;6.80;;
20711;SDS011;10517;50.742;4.224;2023-06-19T10:59:57;11.73;;;7.20;;
20711;SDS011;10517;50.742;4.224;2023-06-19T11:02:23;10.15;;;7.50;;
20711;SDS011;10517;50.742;4.224;2023-06-19T11:04:53;10.82;;;6.90;;
20711;SDS011;10517;50.742;4.224;2023-06-19T11:07:19;8.90;;;6.38;;
20711;SDS011;10517;50.742;4.224;2023-06-19T11:09:47;13.55;;;6.70;;
20711;SDS011;10517;50.742;4.224;2023-06-19T11:12:18;13.25;;;6.40;;
20711;SDS011;10517;50.742;4.224;2023-06-19T11:14:48;13.75;;;7.35;;
20711;SDS011;10517;50.742;4.224;2023-06-19T11:17:14;10.55;;;7.88;;
20711;SDS011;10517;50.742;4.224;2023-06-19T11:19:40;11.65;;;7.57;;
20711;SDS011;10517;50.742;4.224;2023-06-19T11:22:08;15.02;;;7.25;;
20711;SDS011;10517;50.742;4.224;2023-06-19T11:24:34;11.07;;;7.03;;
20711;SDS011;10517;50.742;4.224;2023-06-19T11:26:59;9.40;;;7.25;;
20711;SDS011;10517;50.742;4.224;2023-06-19T11:29:26;10.10;;;7.00;;
20711;SDS011;10517;50.742;4.224;2023-06-19T11:32:12;10.57;;;6.35;;
20711;SDS011;10517;50.742;4.224;2023-06-19T11:34:39;5.65;;;4.85;;
20711;SDS011;10517;50.742;4.224;2023-06-19T11:37:14;7.63;;;5.00;;
20711;SDS011;10517;50.742;4.224;2023-06-19T11:39:43;7.55;;;5.22;;
20711;SDS011;10517;50.742;4.224;2023-06-19T11:42:09;6.80;;;4.72;;
20711;SDS011;10517;50.742;4.224;2023-06-19T11:44:35;7.13;;;4.97;;
20711;SDS011;10517;50.742;4.224;2023-06-19T11:47:00;6.82;;;5.28;;
20711;SDS011;10517;50.742;4.224;2023-06-19T11:49:27;9.32;;;5.60;;
20711;SDS011;10517;50.742;4.224;2023-06-19T11:51:59;5.53;;;4.78;;
20711;SDS011;10517;50.742;4.224;2023-06-19T11:54:25;5.80;;;4.97;;
20711;SDS011;10517;50.742;4.224;2023-06-19T11:56:51;7.97;;;5.35;;
20711;SDS011;10517;50.742;4.224;2023-06-19T11:59:16;7.90;;;5.90;;
20711;SDS011;10517;50.742;4.224;2023-06-19T12:01:42;10.40;;;5.90;;
20711;SDS011;10517;50.742;4.224;2023-06-19T12:04:07;9.05;;;6.18;;
20711;SDS011;10517;50.742;4.224;2023-06-19T12:06:33;6.45;;;5.45;;
20711;SDS011;10517;50.742;4.224;2023-06-19T12:09:00;7.25;;;5.35;;
20711;SDS011;10517;50.742;4.224;2023-06-19T12:11:26;6.50;;;5.50;;
20711;SDS011;10517;50.742;4.224;2023-06-19T12:13:52;7.20;;;5.43;;
20711;SDS011;10517;50.742;4.224;2023-06-19T12:16:22;5.95;;;5.32;;
20711;SDS011;10517;50.742;4.224;2023-06-19T12:18:48;6.50;;;5.55;;
20711;SDS011;10517;50.742;4.224;2023-06-19T12:21:13;8.10;;;5.10;;
20711;SDS011;10517;50.742;4.224;2023-06-19T12:23:39;8.07;;;5.47;;
20711;SDS011;10517;50.742;4.224;2023-06-19T12:26:04;6.60;;;5.50;;
20711;SDS011;10517;50.742;4.224;2023-06-19T12:28:30;6.40;;;5.65;;
20711;SDS011;10517;50.742;4.224;2023-06-19T12:30:56;6.50;;;5.32;;
20711;SDS011;10517;50.742;4.224;2023-06-19T12:33:23;7.22;;;5.88;;
20711;SDS011;10517;50.742;4.224;2023-06-19T12:35:48;6.93;;;5.65;;
20711;SDS011;10517;50.742;4.224;2023-06-19T12:38:14;6.28;;;5.68;;
20711;SDS011;10517;50.742;4.224;2023-06-19T12:40:40;7.50;;;5.72;;
20711;SDS011;10517;50.742;4.224;2023-06-19T12:43:06;5.50;;;4.97;;
20711;SDS011;10517;50.742;4.224;2023-06-19T12:45:32;6.47;;;5.25;;
20711;SDS011;10517;50.742;4.224;2023-06-19T12:47:57;6.68;;;4.78;;
20711;SDS011;10517;50.742;4.224;2023-06-19T12:50:23;4.85;;;4.22;;
20711;SDS011;10517;50.742;4.224;2023-06-19T12:52:50;5.10;;;4.53;;
20711;SDS011;10517;50.742;4.224;2023-06-19T12:55:15;5.13;;;4.28;;
20711;SDS011;10517;50.742;4.224;2023-06-19T12:57:41;5.32;;;4.75;;
20711;SDS011;10517;50.742;4.224;2023-06-19T13:00:10;5.05;;;4.55;;
20711;SDS011;10517;50.742;4.224;2023-06-19T13:02:37;5.45;;;4.95;;
20711;SDS011;10517;50.742;4.224;2023-06-19T13:05:04;5.88;;;5.13;;
20711;SDS011;10517;50.742;4.224;2023-06-19T13:07:30;7.53;;;5.45;;
20711;SDS011;10517;50.742;4.224;2023-06-19T13:09:56;5.35;;;4.88;;
20711;SDS011;10517;50.742;4.224;2023-06-19T13:12:22;5.65;;;4.53;;
20711;SDS011;10517;50.742;4.224;2023-06-19T13:14:48;5.53;;;5.03;;
20711;SDS011;10517;50.742;4.224;2023-06-19T13:17:13;5.47;;;4.82;;
20711;SDS011;10517;50.742;4.224;2023-06-19T13:19:39;5.93;;;5.25;;
20711;SDS011;10517;50.742;4.224;2023-06-19T13:22:05;6.65;;;5.82;;
20711;SDS011;10517;50.742;4.224;2023-06-19T13:24:31;6.38;;;5.78;;
20711;SDS011;10517;50.742;4.224;2023-06-19T13:26:56;6.30;;;5.80;;
20711;SDS011;10517;50.742;4.224;2023-06-19T13:29:22;25.35;;;6.82;;
20711;SDS011;10517;50.742;4.224;2023-06-19T13:31:47;6.18;;;5.68;;
20711;SDS011;10517;50.742;4.224;2023-06-19T13:34:13;6.13;;;5.63;;
20711;SDS011;10517;50.742;4.224;2023-06-19T13:36:39;6.40;;;5.80;;
20711;SDS011;10517;50.742;4.224;2023-06-19T13:39:05;8.00;;;5.30;;
20711;SDS011;10517;50.742;4.224;2023-06-19T13:41:30;7.97;;;5.72;;
20711;SDS011;10517;50.742;4.224;2023-06-19T13:43:57;5.65;;;5.15;;
20711;SDS011;10517;50.742;4.224;2023-06-19T13:46:23;5.95;;;5.50;;
20711;SDS011;10517;50.742;4.224;2023-06-19T13:48:49;6.75;;;6.15;;
20711;SDS011;10517;50.742;4.224;2023-06-19T13:51:19;6.75;;;6.00;;
20711;SDS011;10517;50.742;4.224;2023-06-19T13:53:45;6.55;;;6.05;;
20711;SDS011;10517;50.742;4.224;2023-06-19T13:56:12;6.32;;;5.72;;
20711;SDS011;10517;50.742;4.224;2023-06-19T13:58:38;6.80;;;5.43;;
20711;SDS011;10517;50.742;4.224;2023-06-19T14:01:04;6.50;;;6.00;;
20711;SDS011;10517;50.742;4.224;2023-06-19T14:03:30;6.63;;;6.07;;
20711;SDS011;10517;50.742;4.224;2023-06-19T14:05:56;6.63;;;6.05;;
20711;SDS011;10517;50.742;4.224;2023-06-19T14:08:21;5.97;;;5.68;;
20711;SDS011;10517;50.742;4.224;2023-06-19T14:10:47;7.43;;;5.68;;
20711;SDS011;10517;50.742;4.224;2023-06-19T14:13:12;7.00;;;6.55;;
20711;SDS011;10517;50.742;4.224;2023-06-19T14:15:38;7.07;;;6.38;;
20711;SDS011;10517;50.742;4.224;2023-06-19T14:18:04;6.97;;;6.38;;
20711;SDS011;10517;50.742;4.224;2023-06-19T14:20:30;6.50;;;5.93;;
20711;SDS011;10517;50.742;4.224;2023-06-19T14:22:56;6.95;;;6.35;;
20711;SDS011;10517;50.742;4.224;2023-06-19T14:25:21;6.63;;;6.07;;
20711;SDS011;10517;50.742;4.224;2023-06-19T14:27:47;6.82;;;6.05;;
20711;SDS011;10517;50.742;4.224;2023-06-19T14:30:13;6.90;;;6.25;;
20711;SDS011;10517;50.742;4.224;2023-06-19T14:32:38;5.80;;;5.40;;
20711;SDS011;10517;50.742;4.224;2023-06-19T14:35:04;5.78;;;5.25;;
20711;SDS011;10517;50.742;4.224;2023-06-19T14:37:30;8.20;;;5.80;;
20711;SDS011;10517;50.742;4.224;2023-06-19T14:39:56;6.28;;;5.68;;
20711;SDS011;10517;50.742;4.224;2023-06-19T14:42:22;6.07;;;5.50;;
20711;SDS011;10517;50.742;4.224;2023-06-19T14:44:47;6.00;;;5.03;;